createdAt,value
2018-02-07T00:00:53.613Z,85.3
2018-02-07T00:01:53.619Z,86.24
2018-02-07T00:02:53.631Z,86.24
2018-02-07T00:03:53.386Z,86.43
2018-02-07T00:04:53.653Z,86.33
2018-02-07T00:05:53.654Z,85.96
2018-02-07T00:06:53.667Z,86.43
2018-02-07T00:08:53.681Z,86.24
2018-02-07T00:10:08.381Z,86.05
2018-02-07T00:10:53.706Z,86.33
2018-02-07T00:11:53.741Z,87.18
2018-02-07T00:12:53.749Z,86.99
2018-02-07T00:13:53.506Z,86.33
2018-02-07T00:14:53.776Z,86.33
2018-02-07T00:15:53.761Z,86.43
2018-02-07T00:16:53.782Z,86.24
2018-02-07T00:17:53.542Z,86.52
2018-02-07T00:18:53.813Z,87.18
2018-02-07T00:19:53.830Z,86.99
2018-02-07T00:20:53.892Z,86.99
2018-02-07T00:21:53.847Z,86.8
2018-02-07T00:22:53.851Z,86.62
2018-02-07T00:23:53.858Z,86.8
2018-02-07T00:24:53.878Z,86.71
2018-02-07T00:25:53.886Z,87.09
2018-02-07T00:26:53.896Z,86.99
2018-02-07T00:27:54.017Z,86.71
2018-02-07T00:28:53.916Z,86.62
2018-02-07T00:29:53.677Z,86.71
2018-02-07T00:30:53.957Z,86.8
2018-02-07T00:31:53.958Z,86.8
2018-02-07T00:32:53.977Z,86.71
2018-02-07T00:33:53.732Z,86.9
2018-02-07T00:34:53.989Z,87.47
2018-02-07T00:35:54.008Z,87.28
2018-02-07T00:36:54.016Z,86.99
2018-02-07T00:37:54.019Z,87.09
2018-02-07T00:38:54.026Z,87.09
2018-02-07T00:39:54.051Z,86.9
2018-02-07T00:40:54.062Z,87.47
2018-02-07T00:42:08.743Z,87.66
2018-02-07T00:42:54.082Z,87.09
2018-02-07T00:43:53.847Z,87.66
2018-02-07T00:44:54.101Z,87.94
2018-02-07T00:45:54.123Z,88.13
2018-02-07T00:46:54.120Z,87.56
2018-02-07T00:47:54.139Z,87.85
2018-02-07T00:48:54.154Z,87.66
2018-02-07T00:49:54.161Z,87.56
2018-02-07T00:50:54.171Z,88.13
2018-02-07T00:51:54.188Z,87.85
2018-02-07T00:52:54.189Z,88.23
2018-02-07T00:53:54.211Z,88.23
2018-02-07T00:54:54.224Z,88.32
2018-02-07T00:55:54.233Z,88.04
2018-02-07T00:56:54.249Z,88.13
2018-02-07T00:58:08.921Z,88.13
2018-02-07T00:58:54.274Z,88.7
2018-02-07T00:59:54.289Z,88.23
2018-02-07T01:00:54.296Z,88.13
2018-02-07T01:01:54.290Z,88.32
2018-02-07T01:02:54.308Z,88.79
2018-02-07T01:03:54.316Z,88.7
2018-02-07T01:04:54.335Z,88.89
2018-02-07T01:05:54.351Z,88.6
2018-02-07T01:06:54.361Z,88.79
2018-02-07T01:07:54.374Z,88.7
2018-02-07T01:08:54.397Z,88.42
2018-02-07T01:09:54.383Z,88.79
2018-02-07T01:10:54.399Z,89.07
2018-02-07T01:11:54.424Z,88.7
2018-02-07T01:12:54.413Z,88.79
2018-02-07T01:14:09.105Z,88.7
2018-02-07T01:14:54.450Z,88.7
2018-02-07T01:15:54.208Z,89.26
2018-02-07T01:16:54.473Z,89.07
2018-02-07T01:17:54.487Z,89.07
2018-02-07T01:18:54.478Z,88.79
2018-02-07T01:19:54.254Z,88.6
2018-02-07T01:20:54.254Z,89.26
2018-02-07T01:21:54.534Z,89.26
2018-02-07T01:22:54.538Z,89.17
2018-02-07T01:23:54.555Z,89.17
2018-02-07T01:24:54.563Z,89.17
2018-02-07T01:25:54.577Z,89.17
2018-02-07T01:26:54.580Z,89.64
2018-02-07T01:27:54.591Z,89.92
2018-02-07T01:28:54.603Z,89.64
2018-02-07T01:30:09.289Z,89.64
2018-02-07T01:30:54.372Z,89.73
2018-02-07T01:31:54.633Z,89.36
2018-02-07T01:32:54.393Z,89.26
2018-02-07T01:33:54.413Z,89.73
2018-02-07T01:34:54.672Z,89.45
2018-02-07T01:35:54.431Z,89.64
2018-02-07T01:36:54.437Z,89.36
2018-02-07T01:37:54.712Z,89.54
2018-02-07T01:38:54.710Z,89.64
2018-02-07T01:40:54.486Z,89.54
2018-02-07T01:41:54.762Z,89.54
2018-02-07T01:42:54.872Z,89.45
2018-02-07T01:43:54.529Z,89.45
2018-02-07T01:45:09.458Z,89.64
2018-02-07T01:46:54.821Z,89.83
2018-02-07T01:47:54.814Z,89.73
2018-02-07T01:48:54.834Z,89.73
2018-02-07T01:49:54.855Z,89.64
2018-02-07T01:50:54.858Z,89.45
2018-02-07T01:51:54.871Z,90.11
2018-02-07T01:52:54.884Z,89.83
2018-02-07T01:53:54.892Z,89.54
2018-02-07T01:54:54.942Z,89.45
2018-02-07T01:55:54.919Z,89.45
2018-02-07T01:56:54.917Z,90.21
2018-02-07T01:58:54.943Z,89.83
2018-02-07T01:59:54.969Z,89.54
2018-02-07T02:00:54.982Z,89.54
2018-02-07T02:01:54.721Z,89.64
2018-02-07T02:02:54.985Z,90.02
2018-02-07T02:03:55.020Z,89.92
2018-02-07T02:04:55.012Z,90.02
2018-02-07T02:05:54.773Z,89.83
2018-02-07T02:06:55.040Z,89.92
2018-02-07T02:07:55.053Z,90.87
2018-02-07T02:08:55.054Z,90.3
2018-02-07T02:09:55.069Z,90.96
2018-02-07T02:10:55.086Z,90.49
2018-02-07T02:11:55.104Z,90.77
2018-02-07T02:12:55.093Z,91.06
2018-02-07T02:13:55.108Z,90.87
2018-02-07T02:14:55.238Z,90.87
2018-02-07T02:15:54.885Z,91.06
2018-02-07T02:17:09.825Z,90.96
2018-02-07T02:17:55.152Z,91.15
2018-02-07T02:18:55.178Z,90.68
2018-02-07T02:19:55.180Z,90.87
2018-02-07T02:20:54.937Z,90.96
2018-02-07T02:21:54.946Z,90.96
2018-02-07T02:22:55.225Z,91.06
2018-02-07T02:23:55.232Z,90.96
2018-02-07T02:24:55.235Z,90.96
2018-02-07T02:25:55.244Z,90.96
2018-02-07T02:27:55.285Z,90.96
2018-02-07T02:28:55.277Z,91.15
2018-02-07T02:29:55.310Z,91.06
2018-02-07T02:30:55.311Z,91.25
2018-02-07T02:31:55.317Z,91.34
2018-02-07T02:33:10.000Z,91.06
2018-02-07T02:33:55.350Z,91.06
2018-02-07T02:34:55.361Z,91.15
2018-02-07T02:35:55.368Z,91.25
2018-02-07T02:36:55.384Z,90.87
2018-02-07T02:37:55.391Z,91.15
2018-02-07T02:38:55.396Z,91.25
2018-02-07T02:40:55.423Z,90.87
2018-02-07T02:41:55.438Z,90.68
2018-02-07T02:42:55.449Z,90.77
2018-02-07T02:43:55.555Z,90.87
2018-02-07T02:44:55.465Z,90.96
2018-02-07T02:45:55.477Z,90.68
2018-02-07T02:46:55.498Z,90.49
2018-02-07T02:47:55.501Z,90.87
2018-02-07T02:49:10.186Z,90.77
2018-02-07T02:49:55.529Z,90.49
2018-02-07T02:50:55.522Z,90.21
2018-02-07T02:51:55.560Z,90.3
2018-02-07T02:54:55.589Z,90.87
2018-02-07T02:55:55.607Z,91.15
2018-02-07T02:56:55.618Z,90.77
2018-02-07T02:57:55.610Z,90.4
2018-02-07T02:58:55.620Z,90.4
2018-02-07T02:59:55.648Z,90.3
2018-02-07T03:00:55.658Z,90.49
2018-02-07T03:01:55.667Z,90.87
2018-02-07T03:02:55.685Z,90.4
2018-02-07T03:03:55.690Z,90.49
2018-02-07T03:05:10.364Z,90.49
2018-02-07T03:05:55.459Z,90.59
2018-02-07T03:06:55.730Z,90.49
2018-02-07T03:07:55.721Z,90.3
2018-02-07T03:08:55.745Z,90.68
2018-02-07T03:09:55.752Z,90.77
2018-02-07T03:10:55.758Z,90.68
2018-02-07T03:12:55.790Z,91.06
2018-02-07T03:13:55.808Z,90.96
2018-02-07T03:14:55.819Z,90.96
2018-02-07T03:15:55.822Z,90.87
2018-02-07T03:16:55.846Z,91.06
2018-02-07T03:17:55.837Z,91.15
2018-02-07T03:18:55.870Z,90.59
2018-02-07T03:20:10.542Z,90.4
2018-02-07T03:20:55.874Z,90.87
2018-02-07T03:21:55.891Z,91.06
2018-02-07T03:22:55.895Z,91.15
2018-02-07T03:23:56.021Z,91.72
2018-02-07T03:24:55.922Z,90.87
2018-02-07T03:25:55.943Z,91.63
2018-02-07T03:26:55.952Z,91.34
2018-02-07T03:27:55.968Z,91.44
2018-02-07T03:28:55.977Z,91.25
2018-02-07T03:29:55.992Z,92.1
2018-02-07T03:30:55.987Z,91.82
2018-02-07T03:31:56.015Z,91.82
2018-02-07T03:32:56.014Z,91.72
2018-02-07T03:33:56.034Z,91.91
2018-02-07T03:34:56.028Z,91.44
2018-02-07T03:35:55.797Z,92
2018-02-07T03:36:56.064Z,91.72
2018-02-07T03:37:56.068Z,91.53
2018-02-07T03:38:56.079Z,92
2018-02-07T03:39:56.108Z,91.63
2018-02-07T03:40:56.111Z,91.72
2018-02-07T03:41:56.129Z,91.82
2018-02-07T03:42:56.121Z,91.63
2018-02-07T03:43:56.146Z,91.91
2018-02-07T03:44:55.900Z,91.53
2018-02-07T03:45:56.169Z,91.82
2018-02-07T03:47:55.942Z,91.53
2018-02-07T03:48:56.197Z,91.15
2018-02-07T03:49:55.960Z,91.82
2018-02-07T03:50:56.218Z,91.72
2018-02-07T03:52:10.903Z,91.44
2018-02-07T03:52:56.248Z,91.53
2018-02-07T03:53:56.261Z,91.25
2018-02-07T03:54:56.259Z,91.91
2018-02-07T03:55:56.286Z,91.91
2018-02-07T03:56:56.289Z,91.72
2018-02-07T03:58:56.308Z,91.82
2018-02-07T03:59:56.333Z,91.44
2018-02-07T04:00:56.339Z,91.25
2018-02-07T04:01:56.350Z,91.25
2018-02-07T04:02:56.106Z,91.15
2018-02-07T04:03:56.367Z,91.15
2018-02-07T04:04:56.384Z,91.34
2018-02-07T04:05:56.391Z,91.63
2018-02-07T04:06:56.409Z,91.82
2018-02-07T04:08:11.081Z,91.91
2018-02-07T04:08:56.433Z,91.72
2018-02-07T04:09:56.440Z,91.91
2018-02-07T04:10:56.451Z,91.63
2018-02-07T04:12:56.473Z,91.44
2018-02-07T04:13:56.229Z,91.63
2018-02-07T04:14:56.489Z,92.29
2018-02-07T04:15:56.507Z,92.19
2018-02-07T04:17:56.534Z,92
2018-02-07T04:18:56.537Z,92.19
2018-02-07T04:20:56.313Z,92.38
2018-02-07T04:21:56.323Z,92.19
2018-02-07T04:22:56.574Z,91.72
2018-02-07T04:24:11.268Z,91.91
2018-02-07T04:25:56.629Z,92.47
2018-02-07T04:26:56.627Z,92.19
2018-02-07T04:27:56.632Z,92.1
2018-02-07T04:28:56.675Z,91.82
2018-02-07T04:29:56.661Z,92.19
2018-02-07T04:30:56.674Z,92.1
2018-02-07T04:31:56.679Z,92.19
2018-02-07T04:32:56.710Z,92.19
2018-02-07T04:33:56.716Z,92
2018-02-07T04:35:56.735Z,92.47
2018-02-07T04:36:56.740Z,92.1
2018-02-07T04:37:56.759Z,92.57
2018-02-07T04:38:56.506Z,92.47
2018-02-07T04:40:11.453Z,92.38
2018-02-07T04:40:56.800Z,92.47
2018-02-07T04:41:56.801Z,92
2018-02-07T04:42:56.800Z,92.38
2018-02-07T04:44:56.845Z,92.29
2018-02-07T04:45:56.845Z,92.1
2018-02-07T04:46:56.857Z,92.57
2018-02-07T04:47:56.867Z,92.19
2018-02-07T04:49:56.639Z,92.29
2018-02-07T04:50:56.651Z,92.57
2018-02-07T04:51:56.652Z,92
2018-02-07T04:52:56.931Z,92.19
2018-02-07T04:53:56.689Z,92.29
2018-02-07T04:55:11.627Z,91.82
2018-02-07T04:55:56.708Z,92.1
2018-02-07T04:56:56.973Z,92.29
2018-02-07T04:57:56.989Z,92.1
2018-02-07T04:58:56.985Z,92.1
2018-02-07T04:59:56.764Z,92.29
2018-02-07T05:00:56.764Z,91.91
2018-02-07T05:01:56.785Z,92.94
2018-02-07T05:02:57.056Z,92.29
2018-02-07T05:04:57.069Z,92.57
2018-02-07T05:05:57.069Z,92
2018-02-07T05:06:57.085Z,92.47
2018-02-07T05:07:57.109Z,92.57
2018-02-07T05:08:57.119Z,92.57
2018-02-07T05:09:56.862Z,92.57
2018-02-07T05:10:57.135Z,92.94
2018-02-07T05:11:56.893Z,92.1
2018-02-07T05:12:57.168Z,92
2018-02-07T05:13:57.160Z,92.19
2018-02-07T05:14:56.920Z,92.19
2018-02-07T05:15:57.194Z,92.19
2018-02-07T05:16:57.202Z,92
2018-02-07T05:17:57.209Z,92.38
2018-02-07T05:18:56.990Z,92.85
2018-02-07T05:19:57.241Z,92
2018-02-07T05:20:57.255Z,92.38
2018-02-07T05:21:57.266Z,92.47
2018-02-07T05:22:57.017Z,92.1
2018-02-07T05:23:57.287Z,92.76
2018-02-07T05:24:57.290Z,92.85
2018-02-07T05:25:57.311Z,92.76
2018-02-07T05:27:11.983Z,92.66
2018-02-07T05:27:57.327Z,92.85
2018-02-07T05:28:57.090Z,92.19
2018-02-07T05:29:57.357Z,92.19
2018-02-07T05:30:57.371Z,92.66
2018-02-07T05:31:57.381Z,92.47
2018-02-07T05:32:57.380Z,92.94
2018-02-07T05:33:57.392Z,92.76
2018-02-07T05:34:57.414Z,92.47
2018-02-07T05:36:57.444Z,92.85
2018-02-07T05:37:57.452Z,92.85
2018-02-07T05:38:57.453Z,93.13
2018-02-07T05:39:57.222Z,92.66
2018-02-07T05:41:57.504Z,92.76
2018-02-07T05:43:12.167Z,93.61
2018-02-07T05:43:57.506Z,92.94
2018-02-07T05:44:57.524Z,92.66
2018-02-07T05:45:57.528Z,92.76
2018-02-07T05:46:57.535Z,92.57
2018-02-07T05:47:57.556Z,93.23
2018-02-07T05:48:57.573Z,93.13
2018-02-07T05:49:57.593Z,92.76
2018-02-07T05:50:57.598Z,92.85
2018-02-07T05:51:57.594Z,93.13
2018-02-07T05:52:57.609Z,92.94
2018-02-07T05:53:57.620Z,93.13
2018-02-07T05:54:57.647Z,93.23
2018-02-07T05:55:57.391Z,92.94
2018-02-07T05:56:57.657Z,93.7
2018-02-07T05:57:57.670Z,93.42
2018-02-07T05:59:12.348Z,92.94
2018-02-07T05:59:57.694Z,92.94
2018-02-07T06:00:57.708Z,92.76
2018-02-07T06:01:57.722Z,93.32
2018-02-07T06:02:57.726Z,92.76
2018-02-07T06:03:57.744Z,93.23
2018-02-07T06:04:57.490Z,92.94
2018-02-07T06:05:57.763Z,93.32
2018-02-07T06:06:57.784Z,92.85
2018-02-07T06:07:57.797Z,93.04
2018-02-07T06:08:57.546Z,92.76
2018-02-07T06:09:57.803Z,92.94
2018-02-07T06:10:57.573Z,93.04
2018-02-07T06:11:57.828Z,93.32
2018-02-07T06:12:57.840Z,93.51
2018-02-07T06:13:57.859Z,92.76
2018-02-07T06:15:12.532Z,93.42
2018-02-07T06:15:57.877Z,93.51
2018-02-07T06:16:57.629Z,93.32
2018-02-07T06:17:57.910Z,93.42
2018-02-07T06:19:57.921Z,93.13
2018-02-07T06:20:57.932Z,93.23
2018-02-07T06:21:57.937Z,93.04
2018-02-07T06:22:57.966Z,92.85
2018-02-07T06:23:57.959Z,93.42
2018-02-07T06:24:57.975Z,93.61
2018-02-07T06:25:57.996Z,93.7
2018-02-07T06:26:57.758Z,93.61
2018-02-07T06:27:57.752Z,93.32
2018-02-07T06:28:57.769Z,93.32
2018-02-07T06:30:12.713Z,93.8
2018-02-07T06:30:58.046Z,93.8
2018-02-07T06:31:58.073Z,93.89
2018-02-07T06:32:58.077Z,93.89
2018-02-07T06:33:58.095Z,93.99
2018-02-07T06:34:58.096Z,93.7
2018-02-07T06:35:57.850Z,93.8
2018-02-07T06:36:58.128Z,93.8
2018-02-07T06:38:58.144Z,93.99
2018-02-07T06:39:58.157Z,93.99
2018-02-07T06:40:58.167Z,93.89
2018-02-07T06:41:58.175Z,94.18
2018-02-07T06:42:57.939Z,93.8
2018-02-07T06:43:58.208Z,94.18
2018-02-07T06:44:57.951Z,93.51
2018-02-07T06:45:57.977Z,93.99
2018-02-07T06:47:58.256Z,93.7
2018-02-07T06:48:58.268Z,93.99
2018-02-07T06:49:58.273Z,93.8
2018-02-07T06:50:58.290Z,93.8
2018-02-07T06:51:58.289Z,93.7
2018-02-07T06:52:58.298Z,93.8
2018-02-07T06:53:58.314Z,94.08
2018-02-07T06:54:58.326Z,94.18
2018-02-07T06:55:58.349Z,94.27
2018-02-07T06:56:58.368Z,93.89
2018-02-07T06:57:58.360Z,94.74
2018-02-07T06:58:58.380Z,94.93
2018-02-07T06:59:58.393Z,94.56
2018-02-07T07:00:58.410Z,94.56
2018-02-07T07:02:13.077Z,94.74
2018-02-07T07:02:58.419Z,94.65
2018-02-07T07:03:58.440Z,94.84
2018-02-07T07:04:58.192Z,94.56
2018-02-07T07:05:58.446Z,94.37
2018-02-07T07:06:58.466Z,94.65
2018-02-07T07:07:58.475Z,94.65
2018-02-07T07:08:58.480Z,94.56
2018-02-07T07:09:58.494Z,94.74
2018-02-07T07:11:58.521Z,94.46
2018-02-07T07:12:58.537Z,94.46
2018-02-07T07:13:58.541Z,94.37
2018-02-07T07:14:58.556Z,94.56
2018-02-07T07:15:58.568Z,94.65
2018-02-07T07:16:58.579Z,95.12
2018-02-07T07:18:13.264Z,95.12
2018-02-07T07:18:58.348Z,95.21
2018-02-07T07:19:58.619Z,95.4
2018-02-07T07:20:58.631Z,95.12
2018-02-07T07:21:58.659Z,95.21
2018-02-07T07:22:58.654Z,95.03
2018-02-07T07:23:58.663Z,95.12
2018-02-07T07:25:58.688Z,95.21
2018-02-07T07:26:58.440Z,95.17
2018-02-07T07:27:58.717Z,95.26
2018-02-07T07:28:58.482Z,94.79
2018-02-07T07:29:58.728Z,94.41
2018-02-07T07:30:58.744Z,94.51
2018-02-07T07:31:58.762Z,94.56
2018-02-07T07:32:58.781Z,94.93
2018-02-07T07:34:13.454Z,95.4
2018-02-07T07:34:58.527Z,95.5
2018-02-07T07:35:58.810Z,95.12
2018-02-07T07:36:58.810Z,95.26
2018-02-07T07:38:58.832Z,95.4
2018-02-07T07:39:58.850Z,95.4
2018-02-07T07:40:58.877Z,95.36
2018-02-07T07:41:58.874Z,95.36
2018-02-07T07:42:58.884Z,95.4
2018-02-07T07:43:58.896Z,95.12
2018-02-07T07:44:58.909Z,95.59
2018-02-07T07:45:58.915Z,95.64
2018-02-07T07:46:58.938Z,95.83
2018-02-07T07:47:58.686Z,95.64
2018-02-07T07:48:58.702Z,95.83
2018-02-07T07:50:13.643Z,95.92
2018-02-07T07:50:58.982Z,95.64
2018-02-07T07:51:58.990Z,95.45
2018-02-07T07:52:59.109Z,95.83
2018-02-07T07:53:59.020Z,95.73
2018-02-07T07:54:59.025Z,95.36
2018-02-07T07:55:59.037Z,95.64
2018-02-07T07:56:59.062Z,95.54
2018-02-07T07:57:59.071Z,95.26
2018-02-07T07:58:58.829Z,95.54
2018-02-07T07:59:59.085Z,95.36
2018-02-07T08:00:59.098Z,95.07
2018-02-07T08:01:59.113Z,95.26
2018-02-07T08:02:59.132Z,95.07
2018-02-07T08:03:58.885Z,95.07
2018-02-07T08:05:13.821Z,95.54
2018-02-07T08:05:58.904Z,95.26
2018-02-07T08:06:59.168Z,95.36
2018-02-07T08:07:59.184Z,95.12
2018-02-07T08:08:59.206Z,95.68
2018-02-07T08:09:59.218Z,95.87
2018-02-07T08:10:59.327Z,95.54
2018-02-07T08:11:59.227Z,95.78
2018-02-07T08:12:59.239Z,95.87
2018-02-07T08:13:59.252Z,95.97
2018-02-07T08:14:59.275Z,95.87
2018-02-07T08:15:59.276Z,96.16
2018-02-07T08:16:59.294Z,96.25
2018-02-07T08:17:59.320Z,96.54
2018-02-07T08:18:59.341Z,96.54
2018-02-07T08:19:59.086Z,96.44
2018-02-07T08:20:59.336Z,96.54
2018-02-07T08:21:59.369Z,96.44
2018-02-07T08:22:59.365Z,96.35
2018-02-07T08:23:59.129Z,96.35
2018-02-07T08:24:59.390Z,96.54
2018-02-07T08:25:59.404Z,96.16
2018-02-07T08:26:59.425Z,96.16
2018-02-07T08:27:59.413Z,96.16
2018-02-07T08:28:59.451Z,95.97
2018-02-07T08:30:59.517Z,95.78
2018-02-07T08:31:59.477Z,95.78
2018-02-07T08:32:59.497Z,95.78
2018-02-07T08:33:59.504Z,95.97
2018-02-07T08:34:59.278Z,95.83
2018-02-07T08:35:59.524Z,95.5
2018-02-07T08:37:14.209Z,95.97
2018-02-07T08:37:59.556Z,95.97
2018-02-07T08:38:59.550Z,95.97
2018-02-07T08:39:59.569Z,95.68
2018-02-07T08:41:59.590Z,96.35
2018-02-07T08:42:59.655Z,96.16
2018-02-07T08:43:59.635Z,96.16
2018-02-07T08:44:59.637Z,96.35
2018-02-07T08:45:59.388Z,96.16
2018-02-07T08:46:59.666Z,95.97
2018-02-07T08:47:59.681Z,95.97
2018-02-07T08:48:59.693Z,96.25
2018-02-07T08:49:59.706Z,96.44
2018-02-07T08:50:59.690Z,96.54
2018-02-07T08:51:59.719Z,96.35
2018-02-07T08:53:14.399Z,96.82
2018-02-07T08:53:59.746Z,96.63
2018-02-07T08:54:59.754Z,96.63
2018-02-07T08:56:59.793Z,96.54
2018-02-07T08:57:59.801Z,96.54
2018-02-07T08:58:59.810Z,96.25
2018-02-07T08:59:59.562Z,96.25
2018-02-07T09:00:59.580Z,96.54
2018-02-07T09:01:59.843Z,96.44
2018-02-07T09:02:59.586Z,96.63
2018-02-07T09:03:59.862Z,96.54
2018-02-07T09:04:59.875Z,96.63
2018-02-07T09:05:59.892Z,96.44
2018-02-07T09:06:59.896Z,96.54
2018-02-07T09:07:59.900Z,96.25
2018-02-07T09:09:14.591Z,95.97
2018-02-07T09:09:59.947Z,96.44
2018-02-07T09:11:59.963Z,96.54
2018-02-07T09:12:59.968Z,96.44
2018-02-07T09:13:59.976Z,96.63
2018-02-07T09:14:59.990Z,96.44
2018-02-07T09:16:00.019Z,96.63
2018-02-07T09:17:00.129Z,96.91
2018-02-07T09:18:00.036Z,96.91
2018-02-07T09:19:00.040Z,96.63
2018-02-07T09:19:59.806Z,97.01
2018-02-07T09:21:00.064Z,96.91
2018-02-07T09:22:00.090Z,97.01
2018-02-07T09:23:00.092Z,97.2
2018-02-07T09:24:00.100Z,96.25
2018-02-07T09:25:14.782Z,96.54
2018-02-07T09:26:00.127Z,96.44
2018-02-07T09:27:00.189Z,96.54
2018-02-07T09:28:00.163Z,96.44
2018-02-07T09:29:00.166Z,96.54
2018-02-07T09:29:59.922Z,96.35
2018-02-07T09:30:59.929Z,96.63
2018-02-07T09:32:00.196Z,96.16
2018-02-07T09:33:00.217Z,96.44
2018-02-07T09:34:00.233Z,96.54
2018-02-07T09:34:59.986Z,96.63
2018-02-07T09:36:00.255Z,96.44
2018-02-07T09:37:00.275Z,96.63
2018-02-07T09:39:00.285Z,96.54
2018-02-07T09:40:14.973Z,96.63
2018-02-07T09:41:00.302Z,96.35
2018-02-07T09:42:00.324Z,96.35
2018-02-07T09:43:00.334Z,96.06
2018-02-07T09:44:00.355Z,96.35
2018-02-07T09:45:00.365Z,96.06
2018-02-07T09:46:00.123Z,96.54
2018-02-07T09:48:00.407Z,95.87
2018-02-07T09:49:00.437Z,95.78
2018-02-07T09:50:00.422Z,96.16
2018-02-07T09:51:00.427Z,96.16
2018-02-07T09:52:00.450Z,96.35
2018-02-07T09:53:00.466Z,96.63
2018-02-07T09:54:00.484Z,96.06
2018-02-07T09:55:00.490Z,96.73
2018-02-07T09:56:00.511Z,96.73
2018-02-07T09:57:00.253Z,96.35
2018-02-07T09:58:00.260Z,96.06
2018-02-07T09:59:00.531Z,96.16
2018-02-07T10:00:00.555Z,96.25
2018-02-07T10:01:00.553Z,96.16
2018-02-07T10:02:00.564Z,96.25
2018-02-07T10:03:00.592Z,96.54
2018-02-07T10:04:00.586Z,95.78
2018-02-07T10:05:00.607Z,95.68
2018-02-07T10:06:00.618Z,95.78
2018-02-07T10:07:00.731Z,95.59
2018-02-07T10:08:00.647Z,95.78
2018-02-07T10:09:00.648Z,95.97
2018-02-07T10:10:00.658Z,95.78
2018-02-07T10:11:00.694Z,95.5
2018-02-07T10:12:15.360Z,95.78
2018-02-07T10:13:00.705Z,95.78
2018-02-07T10:14:00.726Z,95.97
2018-02-07T10:15:00.740Z,95.4
2018-02-07T10:16:00.733Z,95.59
2018-02-07T10:17:00.754Z,95.87
2018-02-07T10:18:00.513Z,95.83
2018-02-07T10:19:00.521Z,95.45
2018-02-07T10:20:00.784Z,95.45
2018-02-07T10:21:00.812Z,94.89
2018-02-07T10:22:00.560Z,94.6
2018-02-07T10:23:00.820Z,94.6
2018-02-07T10:24:00.852Z,94.51
2018-02-07T10:25:00.840Z,94.32
2018-02-07T10:26:00.616Z,94.13
2018-02-07T10:27:00.888Z,93.84
2018-02-07T10:28:15.557Z,94.03
2018-02-07T10:29:00.916Z,93.37
2018-02-07T10:30:00.660Z,93.28
2018-02-07T10:32:00.937Z,92.9
2018-02-07T10:33:00.945Z,92.52
2018-02-07T10:34:00.974Z,92
2018-02-07T10:35:01.005Z,92.19
2018-02-07T10:36:00.996Z,92.29
2018-02-07T10:37:00.748Z,92.29
2018-02-07T10:38:01.010Z,92
2018-02-07T10:39:01.031Z,92.1
2018-02-07T10:40:01.040Z,92.19
2018-02-07T10:42:00.820Z,90.96
2018-02-07T10:44:15.759Z,90.58
2018-02-07T10:46:01.130Z,90.68
2018-02-07T10:47:01.118Z,90.3
2018-02-07T10:48:01.146Z,89.64
2018-02-07T10:49:01.153Z,90.3
2018-02-07T10:50:00.926Z,90.49
2018-02-07T10:51:01.198Z,90.01
2018-02-07T10:52:01.207Z,89.45
2018-02-07T10:53:00.960Z,89.83
2018-02-07T10:54:01.212Z,89.36
2018-02-07T10:55:01.245Z,88.98
2018-02-07T10:56:01.243Z,89.26
2018-02-07T10:57:01.265Z,89.64
2018-02-07T10:58:01.025Z,89.07
2018-02-07T10:59:01.283Z,89.17
2018-02-07T11:00:15.974Z,89.64
2018-02-07T11:01:01.313Z,88.88
2018-02-07T11:03:01.089Z,89.92
2018-02-07T11:04:01.355Z,89.64
2018-02-07T11:05:01.359Z,89.92
2018-02-07T11:06:01.370Z,89.36
2018-02-07T11:08:01.406Z,88.98
2018-02-07T11:10:01.434Z,89.12
2018-02-07T11:11:01.443Z,88.88
2018-02-07T11:12:01.200Z,88.79
2018-02-07T11:13:01.473Z,88.93
2018-02-07T11:14:01.238Z,88.74
2018-02-07T11:15:16.172Z,88.45
2018-02-07T11:16:01.525Z,88.07
2018-02-07T11:17:01.510Z,89.02
2018-02-07T11:18:01.537Z,89.12
2018-02-07T11:20:01.560Z,87.98
2018-02-07T11:21:01.319Z,87.23
2018-02-07T11:22:01.596Z,87.41
2018-02-07T11:23:01.356Z,87.41
2018-02-07T11:24:01.620Z,87.7
2018-02-07T11:25:01.634Z,87.23
2018-02-07T11:26:01.384Z,86.94
2018-02-07T11:27:01.408Z,87.23
2018-02-07T11:28:01.663Z,87.13
2018-02-07T11:29:01.688Z,86.94
2018-02-07T11:30:01.452Z,86.85
2018-02-07T11:31:01.718Z,86.85
2018-02-07T11:32:01.737Z,87.32
2018-02-07T11:33:01.734Z,87.41
2018-02-07T11:34:01.751Z,86.94
2018-02-07T11:35:01.763Z,86.75
2018-02-07T11:36:01.837Z,87.04
2018-02-07T11:37:01.800Z,86.94
2018-02-07T11:38:01.798Z,85.99
2018-02-07T11:39:01.817Z,86.09
2018-02-07T11:40:01.831Z,86.28
2018-02-07T11:41:01.590Z,86.37
2018-02-07T11:42:01.855Z,85.9
2018-02-07T11:43:01.622Z,85.9
2018-02-07T11:44:01.881Z,85.8
2018-02-07T11:45:01.899Z,85.52
2018-02-07T11:46:01.902Z,85.71
2018-02-07T11:47:16.600Z,85.99
2018-02-07T11:48:01.943Z,85.33
2018-02-07T11:49:01.950Z,85.52
2018-02-07T11:50:01.712Z,85.33
2018-02-07T11:51:01.723Z,85.61
2018-02-07T11:52:01.991Z,85.42
2018-02-07T11:53:01.778Z,85.52
2018-02-07T11:54:01.764Z,85.14
2018-02-07T11:55:02.024Z,85.52
2018-02-07T11:56:01.800Z,85.33
2018-02-07T11:58:01.813Z,85.52
2018-02-07T11:59:02.195Z,85.61
2018-02-07T12:00:02.090Z,85.52
2018-02-07T12:01:02.120Z,85.24
2018-02-07T12:02:02.118Z,85.14
2018-02-07T12:03:16.813Z,85.33
2018-02-07T12:04:02.152Z,85.42
2018-02-07T12:05:02.171Z,84.77
2018-02-07T12:06:02.190Z,85.24
2018-02-07T12:07:02.192Z,85.28
2018-02-07T12:08:02.208Z,85.09
2018-02-07T12:09:02.219Z,84.71
2018-02-07T12:10:01.980Z,84.14
2018-02-07T12:12:02.266Z,84.14
2018-02-07T12:13:02.283Z,83.86
2018-02-07T12:14:02.289Z,83.29
2018-02-07T12:15:02.304Z,82.72
2018-02-07T12:16:02.315Z,82.91
2018-02-07T12:17:02.325Z,83.29
2018-02-07T12:18:02.094Z,83.29
2018-02-07T12:19:17.031Z,82.91
2018-02-07T12:20:02.375Z,82.91
2018-02-07T12:22:02.467Z,82.44
2018-02-07T12:23:02.159Z,82.06
2018-02-07T12:24:02.427Z,82.72
2018-02-07T12:25:02.449Z,82.44
2018-02-07T12:26:02.447Z,82.44
2018-02-07T12:27:02.467Z,82.44
2018-02-07T12:29:02.499Z,82.44
2018-02-07T12:30:02.523Z,82.34
2018-02-07T12:31:02.525Z,82.06
2018-02-07T12:32:02.524Z,81.96
2018-02-07T12:33:02.549Z,81.87
2018-02-07T12:34:02.572Z,81.59
2018-02-07T12:35:17.242Z,82.06
2018-02-07T12:36:02.586Z,81.87
2018-02-07T12:37:02.596Z,81.4
2018-02-07T12:38:02.623Z,81.77
2018-02-07T12:39:02.630Z,80.93
2018-02-07T12:40:02.656Z,81.02
2018-02-07T12:41:02.658Z,80.83
2018-02-07T12:42:02.425Z,80.64
2018-02-07T12:43:02.683Z,80.17
2018-02-07T12:44:02.694Z,79.79
2018-02-07T12:46:02.478Z,78.94
2018-02-07T12:47:02.480Z,78.65
2018-02-07T12:48:02.760Z,78.65
2018-02-07T12:49:02.770Z,77.99
2018-02-07T12:50:17.448Z,77.8
2018-02-07T12:51:02.797Z,78.08
2018-02-07T12:52:02.803Z,77.42
2018-02-07T12:53:02.833Z,77.14
2018-02-07T12:54:02.843Z,77.42
2018-02-07T12:55:02.860Z,77.04
2018-02-07T12:56:02.853Z,77.23
2018-02-07T12:57:02.873Z,76.86
2018-02-07T12:58:02.639Z,76.99
2018-02-07T12:59:02.922Z,77.46
2018-02-07T13:00:02.920Z,76.99
2018-02-07T13:01:02.679Z,77.18
2018-02-07T13:02:02.950Z,76.86
2018-02-07T13:04:02.967Z,76.29
2018-02-07T13:05:02.989Z,76.95
2018-02-07T13:06:04.252Z,77.27
2018-02-07T13:07:03.021Z,77.37
2018-02-07T13:08:03.032Z,77.08
2018-02-07T13:09:03.068Z,77.18
2018-02-07T13:10:02.799Z,77.08
2018-02-07T13:11:03.082Z,77.75
2018-02-07T13:12:03.091Z,78.13
2018-02-07T13:13:02.857Z,77.94
2018-02-07T13:14:03.106Z,76.95
2018-02-07T13:15:03.127Z,77.18
2018-02-07T13:16:03.150Z,76.38
2018-02-07T13:17:03.159Z,76.42
2018-02-07T13:18:03.173Z,75
2018-02-07T13:19:03.177Z,74.77
2018-02-07T13:20:02.951Z,74.68
2018-02-07T13:21:03.225Z,74.68
2018-02-07T13:22:17.894Z,75.05
2018-02-07T13:23:03.243Z,75.34
2018-02-07T13:25:03.280Z,75.34
2018-02-07T13:26:03.282Z,74.77
2018-02-07T13:27:03.290Z,74.49
2018-02-07T13:28:03.056Z,75.05
2018-02-07T13:29:03.332Z,74.68
2018-02-07T13:30:03.084Z,74.87
2018-02-07T13:31:03.347Z,74.96
2018-02-07T13:32:03.366Z,74.68
2018-02-07T13:33:03.379Z,74.68
2018-02-07T13:34:03.509Z,74.49
2018-02-07T13:35:03.407Z,74.77
2018-02-07T13:36:03.417Z,74.49
2018-02-07T13:37:03.182Z,73.92
2018-02-07T13:38:18.119Z,74.11
2018-02-07T13:40:03.220Z,74.68
2018-02-07T13:41:03.481Z,75.05
2018-02-07T13:42:03.520Z,75.24
2018-02-07T13:43:03.520Z,75.05
2018-02-07T13:44:03.523Z,75.43
2018-02-07T13:45:03.534Z,75.62
2018-02-07T13:46:03.550Z,75.81